createdAt,value
2023-03-29T00:03:39.479Z,2.40
2023-03-29T00:07:45.565Z,2.20
2023-03-29T00:11:51.392Z,2.60
2023-03-29T00:15:57.268Z,3.00
2023-03-29T00:20:07.096Z,3.00
2023-03-29T00:24:12.642Z,2.77
2023-03-29T00:28:18.172Z,2.70
2023-03-29T00:32:23.770Z,2.43
2023-03-29T00:36:29.340Z,2.50
2023-03-29T00:40:41.559Z,2.80
2023-03-29T00:45:18.909Z,2.97
2023-03-29T00:49:24.518Z,2.90
2023-03-29T00:53:33.843Z,2.80
2023-03-29T00:57:41.317Z,2.70
2023-03-29T01:02:05.407Z,2.97
2023-03-29T01:06:13.329Z,3.50
2023-03-29T01:10:31.938Z,2.93
2023-03-29T01:14:53.620Z,2.90
2023-03-29T01:19:00.426Z,3.30
2023-03-29T01:23:43.584Z,3.30
2023-03-29T01:28:04.562Z,3.20
2023-03-29T01:32:15.693Z,3.23
2023-03-29T01:37:00.530Z,4.10
2023-03-29T01:41:07.808Z,4.30
2023-03-29T01:45:19.955Z,4.33
2023-03-29T01:49:35.552Z,3.80
2023-03-29T01:53:51.139Z,3.30
2023-03-29T01:57:58.432Z,3.30
2023-03-29T02:02:11.297Z,3.70
2023-03-29T02:06:26.241Z,3.60
2023-03-29T02:10:34.141Z,3.80
2023-03-29T02:14:39.714Z,3.80
2023-03-29T02:18:48.269Z,3.70
2023-03-29T02:23:24.759Z,3.43
2023-03-29T02:27:30.376Z,3.33
2023-03-29T02:31:48.997Z,3.50
2023-03-29T02:36:14.285Z,3.37
2023-03-29T02:40:21.606Z,4.40
2023-03-29T02:44:33.226Z,3.10
2023-03-29T02:48:39.444Z,3.40
2023-03-29T02:52:59.267Z,3.40
2023-03-29T02:57:06.605Z,3.60
2023-03-29T03:01:12.836Z,3.50
2023-03-29T03:05:19.000Z,4.60
2023-03-29T03:09:24.593Z,3.20
2023-03-29T03:13:30.104Z,3.47
2023-03-29T03:17:40.024Z,2.87
2023-03-29T03:21:47.031Z,2.50
2023-03-29T03:25:52.993Z,2.90
2023-03-29T03:29:58.433Z,3.10
2023-03-29T03:34:03.911Z,2.67
2023-03-29T03:38:10.871Z,2.97
2023-03-29T03:42:16.665Z,2.73
2023-03-29T03:46:22.205Z,3.30
2023-03-29T03:50:28.138Z,3.03
2023-03-29T03:54:34.328Z,3.10
2023-03-29T03:58:40.064Z,3.00
2023-03-29T04:02:47.579Z,2.73
2023-03-29T04:06:53.079Z,2.70
2023-03-29T04:11:00.096Z,2.30
2023-03-29T04:15:07.172Z,2.27
2023-03-29T04:19:13.604Z,3.20
2023-03-29T04:23:19.326Z,2.20
2023-03-29T04:27:24.898Z,2.23
2023-03-29T04:31:30.984Z,2.43
2023-03-29T04:35:36.604Z,2.50
2023-03-29T04:39:42.487Z,2.70
2023-03-29T04:43:48.078Z,2.80
2023-03-29T04:47:56.740Z,2.97
2023-03-29T04:52:02.302Z,2.30
2023-03-29T04:56:08.518Z,2.37
2023-03-29T05:00:15.492Z,2.23
2023-03-29T05:04:21.072Z,2.73
2023-03-29T05:08:26.531Z,2.80
2023-03-29T05:12:32.718Z,2.40
2023-03-29T05:16:38.388Z,2.77
2023-03-29T05:20:43.942Z,2.80
2023-03-29T05:24:51.551Z,2.63
2023-03-29T05:28:57.309Z,2.93
2023-03-29T05:33:05.562Z,3.50
2023-03-29T05:37:11.319Z,2.30
2023-03-29T05:41:17.981Z,2.33
2023-03-29T05:45:24.679Z,3.10
2023-03-29T05:49:30.326Z,2.17
2023-03-29T05:53:36.433Z,2.50
2023-03-29T05:57:41.967Z,2.60
2023-03-29T06:01:47.584Z,2.60
2023-03-29T06:06:04.192Z,2.50
2023-03-29T06:10:10.550Z,2.60
2023-03-29T06:14:16.307Z,2.73
2023-03-29T06:18:23.516Z,3.10
2023-03-29T06:22:29.029Z,3.10
2023-03-29T06:26:35.257Z,2.73
2023-03-29T06:30:41.983Z,2.80
2023-03-29T06:34:47.531Z,3.00
2023-03-29T06:38:53.906Z,3.60
2023-03-29T06:43:00.492Z,2.90
2023-03-29T06:47:06.015Z,3.63
2023-03-29T06:51:11.509Z,3.33
2023-03-29T06:55:18.377Z,4.00
2023-03-29T06:59:23.923Z,4.10
2023-03-29T07:03:29.997Z,3.70
2023-03-29T07:07:53.551Z,4.17
2023-03-29T07:12:00.631Z,3.80
2023-03-29T07:16:07.281Z,4.63
2023-03-29T07:20:14.445Z,4.97
2023-03-29T07:24:21.463Z,4.37
2023-03-29T07:28:27.076Z,4.47
2023-03-29T07:32:33.929Z,3.77
2023-03-29T07:36:40.158Z,4.40
2023-03-29T07:40:45.886Z,4.20
2023-03-29T07:44:51.508Z,4.30
2023-03-29T07:48:57.340Z,4.57
2023-03-29T07:53:03.342Z,4.27
2023-03-29T07:57:08.954Z,4.97
2023-03-29T08:01:18.888Z,4.67
2023-03-29T08:09:33.614Z,4.27
2023-03-29T08:13:39.163Z,4.17
2023-03-29T08:17:46.278Z,4.60
2023-03-29T08:21:52.013Z,4.77
2023-03-29T08:25:57.674Z,4.30
2023-03-29T08:30:05.307Z,3.60
2023-03-29T08:34:10.981Z,4.00
2023-03-29T08:38:16.537Z,3.73
2023-03-29T08:42:59.156Z,3.40
2023-03-29T08:47:23.338Z,3.53
2023-03-29T08:51:46.476Z,4.17
2023-03-29T08:55:53.571Z,4.00
2023-03-29T09:00:04.757Z,3.93
2023-03-29T09:04:22.812Z,4.27
2023-03-29T09:08:28.573Z,3.80
2023-03-29T09:13:17.815Z,4.07
2023-03-29T09:17:35.718Z,3.77
2023-03-29T09:22:05.226Z,3.23
2023-03-29T09:26:49.158Z,3.70
2023-03-29T09:31:03.689Z,3.87
2023-03-29T09:35:27.632Z,4.07
2023-03-29T09:39:33.317Z,3.90
2023-03-29T09:43:42.956Z,3.90
2023-03-29T09:47:55.575Z,3.40
2023-03-29T09:52:09.343Z,3.80
2023-03-29T09:56:15.968Z,3.73
2023-03-29T10:00:22.373Z,3.50
2023-03-29T10:04:28.071Z,3.57
2023-03-29T10:08:41.528Z,3.40
2023-03-29T10:12:53.287Z,3.60
2023-03-29T10:16:59.700Z,3.90
2023-03-29T10:21:06.135Z,3.93
2023-03-29T10:25:18.011Z,3.60
2023-03-29T10:29:25.712Z,3.63
2023-03-29T10:33:34.877Z,3.10
2023-03-29T10:37:43.178Z,3.47
2023-03-29T10:41:52.693Z,3.60
2023-03-29T10:46:31.937Z,4.30
2023-03-29T10:50:40.603Z,3.10
2023-03-29T10:54:47.558Z,3.50
2023-03-29T10:59:23.415Z,3.40
2023-03-29T11:03:57.094Z,3.30
2023-03-29T11:08:31.859Z,3.70
2023-03-29T11:13:14.997Z,3.23
2023-03-29T11:17:43.007Z,3.07
2023-03-29T11:22:13.921Z,3.53
2023-03-29T11:27:09.502Z,3.80
2023-03-29T11:31:41.445Z,3.43
2023-03-29T11:36:14.724Z,3.20
2023-03-29T11:40:36.720Z,3.13
2023-03-29T11:44:44.773Z,3.80
2023-03-29T11:49:10.310Z,3.80
2023-03-29T11:53:43.900Z,3.60
2023-03-29T11:58:19.030Z,3.57
2023-03-29T12:02:41.724Z,3.83
2023-03-29T12:07:01.743Z,3.73
2023-03-29T12:11:35.173Z,3.97
2023-03-29T12:15:58.939Z,3.80
2023-03-29T12:20:19.810Z,3.77
2023-03-29T12:24:30.215Z,3.67
2023-03-29T12:29:09.740Z,3.67
2023-03-29T12:33:47.770Z,3.13
2023-03-29T12:38:01.967Z,3.57
2023-03-29T12:42:17.061Z,4.00
2023-03-29T12:46:27.696Z,3.20
2023-03-29T12:50:49.411Z,3.70
2023-03-29T12:55:02.021Z,2.93
2023-03-29T12:59:10.768Z,3.47
2023-03-29T13:03:35.149Z,4.10
2023-03-29T13:07:47.505Z,3.70
2023-03-29T13:12:04.137Z,4.40
2023-03-29T13:16:28.371Z,4.13
2023-03-29T13:21:10.369Z,3.80
2023-03-29T13:26:00.254Z,4.53
2023-03-29T13:30:41.538Z,5.13
2023-03-29T13:35:03.467Z,3.87
2023-03-29T13:39:22.163Z,4.03
2023-03-29T13:43:51.885Z,4.17
2023-03-29T13:48:28.995Z,5.10
2023-03-29T13:52:40.988Z,4.80
2023-03-29T13:57:13.930Z,4.20
2023-03-29T14:01:32.705Z,4.70
2023-03-29T14:05:43.356Z,4.60
2023-03-29T14:09:51.059Z,5.53
2023-03-29T14:14:00.077Z,6.03
2023-03-29T14:18:05.999Z,5.70
2023-03-29T14:22:17.616Z,6.10
2023-03-29T14:26:25.727Z,6.30
2023-03-29T14:30:32.021Z,6.53
2023-03-29T14:34:39.263Z,6.23
2023-03-29T14:38:50.832Z,6.00
2023-03-29T14:42:56.509Z,5.90
2023-03-29T14:47:03.388Z,5.80
2023-03-29T14:51:09.771Z,4.73
2023-03-29T14:55:18.310Z,4.87
2023-03-29T14:59:32.151Z,6.73
2023-03-29T15:03:57.796Z,4.17
2023-03-29T15:08:04.787Z,5.77
2023-03-29T15:12:16.265Z,5.43
2023-03-29T15:16:22.804Z,5.47
2023-03-29T15:20:39.884Z,5.43
2023-03-29T15:24:49.057Z,5.03
2023-03-29T15:29:07.533Z,5.53
2023-03-29T15:33:22.030Z,5.93
2023-03-29T15:37:28.681Z,5.33
2023-03-29T15:41:34.190Z,5.80
2023-03-29T15:45:39.743Z,6.00
2023-03-29T15:49:47.494Z,6.63
2023-03-29T15:53:53.101Z,6.80
2023-03-29T15:57:58.719Z,6.50
2023-03-29T16:02:05.087Z,7.20
2023-03-29T16:06:12.310Z,6.90
2023-03-29T16:10:17.852Z,5.87
2023-03-29T16:14:27.308Z,6.70
2023-03-29T16:18:32.927Z,6.50
2023-03-29T16:22:38.468Z,6.27
2023-03-29T16:26:44.209Z,7.00
2023-03-29T16:30:49.819Z,6.57
2023-03-29T16:34:55.655Z,6.03
2023-03-29T16:39:01.627Z,6.80
2023-03-29T16:43:10.602Z,6.40
2023-03-29T16:47:16.325Z,5.80
2023-03-29T16:51:21.917Z,7.13
2023-03-29T16:55:28.387Z,6.43
2023-03-29T16:59:33.923Z,6.70
2023-03-29T17:03:40.500Z,6.30
2023-03-29T17:07:46.853Z,6.73
2023-03-29T17:11:52.552Z,6.33
2023-03-29T17:15:58.249Z,6.13
2023-03-29T17:20:11.823Z,6.70
2023-03-29T17:24:17.495Z,6.60
2023-03-29T17:28:24.104Z,7.17
2023-03-29T17:32:29.677Z,6.10
2023-03-29T17:36:37.426Z,6.60
2023-03-29T17:40:43.150Z,6.50
2023-03-29T17:44:48.657Z,6.40
2023-03-29T17:48:54.380Z,6.60
2023-03-29T17:52:59.856Z,7.20
2023-03-29T17:57:05.528Z,7.37
2023-03-29T18:01:13.418Z,8.03
2023-03-29T18:05:19.038Z,9.00
2023-03-29T18:09:27.067Z,8.00
2023-03-29T18:13:34.597Z,7.80
2023-03-29T18:17:40.171Z,9.33
2023-03-29T18:21:45.678Z,8.00
2023-03-29T18:25:51.501Z,7.53
2023-03-29T18:29:58.692Z,7.30
2023-03-29T18:34:04.288Z,6.77
2023-03-29T18:38:10.084Z,6.13
2023-03-29T18:42:15.694Z,6.87
2023-03-29T18:46:21.278Z,7.00
2023-03-29T18:50:27.111Z,19.17
2023-03-29T18:54:32.686Z,14.17
2023-03-29T18:58:38.188Z,15.27
2023-03-29T19:02:43.789Z,12.00
2023-03-29T19:06:49.399Z,6.87
2023-03-29T19:11:02.808Z,10.30
2023-03-29T19:15:09.662Z,8.03
2023-03-29T19:19:15.127Z,8.10
2023-03-29T19:23:22.630Z,11.60
2023-03-29T19:27:28.169Z,8.33
2023-03-29T19:31:35.892Z,6.90
2023-03-29T19:35:41.901Z,7.40
2023-03-29T19:39:47.438Z,6.93
2023-03-29T19:43:53.052Z,6.60
2023-03-29T19:48:02.935Z,6.80
2023-03-29T19:52:09.108Z,6.53
2023-03-29T19:56:15.861Z,6.90
2023-03-29T20:00:25.049Z,6.70
2023-03-29T20:04:33.321Z,7.43
2023-03-29T20:08:39.044Z,7.60
2023-03-29T20:12:44.657Z,6.87
2023-03-29T20:16:50.795Z,6.10
2023-03-29T20:20:56.407Z,6.03
2023-03-29T20:25:02.077Z,6.73
2023-03-29T20:29:07.998Z,6.87
2023-03-29T20:33:13.455Z,7.20
2023-03-29T20:37:22.920Z,6.03
2023-03-29T20:41:28.595Z,6.80
2023-03-29T20:45:46.193Z,7.70
2023-03-29T20:49:57.940Z,6.33
2023-03-29T20:54:05.831Z,6.73
2023-03-29T20:58:11.563Z,7.33
2023-03-29T21:02:21.199Z,6.27
2023-03-29T21:06:27.017Z,7.20
2023-03-29T21:10:32.780Z,7.57
2023-03-29T21:14:38.756Z,6.60
2023-03-29T21:18:44.238Z,7.00
2023-03-29T21:22:49.927Z,6.93
2023-03-29T21:26:55.400Z,7.47
2023-03-29T21:31:07.263Z,7.43
2023-03-29T21:35:13.158Z,7.20
2023-03-29T21:39:18.629Z,7.77
2023-03-29T21:43:24.293Z,8.07
2023-03-29T21:47:29.810Z,7.10
2023-03-29T21:51:35.448Z,7.50
2023-03-29T21:55:41.035Z,8.73
2023-03-29T21:59:46.509Z,8.00
2023-03-29T22:03:52.014Z,7.17
2023-03-29T22:07:58.660Z,8.30
2023-03-29T22:12:04.836Z,8.00
2023-03-29T22:16:17.034Z,7.77
2023-03-29T22:20:22.971Z,8.03
2023-03-29T22:24:29.127Z,7.80
2023-03-29T22:28:36.803Z,7.20
2023-03-29T22:32:42.569Z,7.60
2023-03-29T22:36:48.126Z,8.93
2023-03-29T22:40:54.119Z,9.07
2023-03-29T22:44:59.625Z,8.67
2023-03-29T22:49:06.028Z,8.50
2023-03-29T22:53:11.658Z,8.53
2023-03-29T22:57:17.197Z,7.20
2023-03-29T23:01:22.818Z,8.23
2023-03-29T23:05:28.296Z,7.57
2023-03-29T23:09:33.939Z,7.20
2023-03-29T23:13:39.553Z,7.97
2023-03-29T23:17:45.453Z,8.00
2023-03-29T23:21:52.721Z,7.80
2023-03-29T23:25:58.427Z,8.23
2023-03-29T23:30:04.495Z,8.10
2023-03-29T23:34:10.608Z,8.80
2023-03-29T23:38:16.174Z,8.33
2023-03-29T23:42:21.703Z,8.70
2023-03-29T23:46:27.317Z,8.53
2023-03-29T23:50:32.839Z,9.67
2023-03-29T23:54:38.635Z,9.23
2023-03-29T23:58:44.547Z,9.63
